Main page
METAR-TAF:

METAR-TAF

Airports :

Mont-De-Marsan, France

latitude: 43-55N, longitude: 000-30W, elevation: 62 m

Current weather observation

The report was made 36 minutes ago, at 08:30 UTC
Wind 2 kt from variable directions
Temperature 22°C
Humidity 69%
Pressure 1021 hPa
Visibility 10 km or more
no clouds below 1500 m and no cumulonimbus

METAR: LFBM 150830Z AUTO VRB02KT CAVOK 22/16 Q1021 NOSIG

Time: 11:06 (09:06 UTC)

Forecast

The report was made 1 hour and 6 minutes ago, at 08:00 UTC
Forecast valid from 15 at 09 UTC to 16 at 09 UTC
Wind 10 kt from the East
Visibility 10 km or more
no clouds below 1500 m and no cumulonimbus
Becoming
from 16 at 01 UTC to 16 at 03 UTC
Wind 5 kt from the Southwest
Temporary
from 16 at 04 UTC to 16 at 07 UTC
Visibility: 2000 m
Broken clouds at a height of 500 ft
mist

TAF: LFBM 150800Z 1509/1609 08010KT CAVOK BECMG 1601/1603 23005KT TEMPO 1604/1607 2000 BR BKN005

Weather observations and forecasts of more than 4000 airports (METAR and TAF reports).

The available stations are represented by yellow and red dots on the map.

Hover mouse over dot to see the name of the station.

Then click to see weather observations and forecasts.

To change the map : click on the green buttons with a black cross to zoom in, on the green button with a dash to zoom out, or on the green arrows for adjacent maps.


METAR-TAF: